createdAt,value
2023-05-19T00:00:29.043Z,11.58
2023-05-19T00:03:00.884Z,11.57
2023-05-19T00:05:35.777Z,11.57
2023-05-19T00:08:07.958Z,11.56
2023-05-19T00:10:39.547Z,11.57
2023-05-19T00:13:10.887Z,11.56
2023-05-19T00:15:42.552Z,11.55
2023-05-19T00:18:14.397Z,11.53
2023-05-19T00:20:47.905Z,11.51
2023-05-19T00:23:18.694Z,11.51
2023-05-19T00:25:49.419Z,11.50
2023-05-19T00:28:20.267Z,11.49
2023-05-19T00:30:51.124Z,11.48
2023-05-19T00:33:22.037Z,11.45
2023-05-19T00:35:55.668Z,11.42
2023-05-19T00:38:26.576Z,11.41
2023-05-19T00:40:57.511Z,11.40
2023-05-19T00:43:28.636Z,11.40
2023-05-19T00:45:59.802Z,11.37
2023-05-19T00:48:30.959Z,11.36
2023-05-19T00:51:06.889Z,11.33
2023-05-19T00:53:38.725Z,11.32
2023-05-19T00:56:09.857Z,11.27
2023-05-19T00:58:40.848Z,11.31
2023-05-19T01:01:17.480Z,11.31
2023-05-19T01:03:49.280Z,11.32
2023-05-19T01:06:23.000Z,11.30
2023-05-19T01:08:54.803Z,11.29
2023-05-19T01:11:25.548Z,11.29
2023-05-19T01:13:56.460Z,11.27
2023-05-19T01:16:33.534Z,11.26
2023-05-19T01:19:11.173Z,11.25
2023-05-19T01:22:15.839Z,11.26
2023-05-19T01:25:20.366Z,11.25
2023-05-19T01:28:27.229Z,11.23
2023-05-19T01:31:01.737Z,11.23
2023-05-19T01:33:34.334Z,11.22
2023-05-19T01:36:07.013Z,11.22
2023-05-19T01:38:41.504Z,11.19
2023-05-19T01:41:13.735Z,11.22
2023-05-19T01:43:44.686Z,11.21
2023-05-19T01:46:18.869Z,11.18
2023-05-19T01:48:51.645Z,11.17
2023-05-19T01:51:23.826Z,11.16
2023-05-19T01:53:54.702Z,11.16
2023-05-19T01:56:37.384Z,11.09
2023-05-19T01:59:20.004Z,11.14
2023-05-19T02:01:57.227Z,11.14
2023-05-19T02:04:40.523Z,11.10
2023-05-19T02:07:18.602Z,11.08
2023-05-19T02:10:04.319Z,11.07
2023-05-19T02:12:40.565Z,10.98
2023-05-19T02:15:17.541Z,11.04
2023-05-19T02:17:54.777Z,11.02
2023-05-19T02:20:45.443Z,11.02
2023-05-19T02:23:16.161Z,11.02
2023-05-19T02:25:47.035Z,11.02
2023-05-19T02:28:17.917Z,11.02
2023-05-19T02:30:48.699Z,11.03
2023-05-19T02:33:24.989Z,11.03
2023-05-19T02:35:56.682Z,11.01
2023-05-19T02:38:27.974Z,11.02
2023-05-19T02:40:59.005Z,11.00
2023-05-19T02:43:30.931Z,11.03
2023-05-19T02:46:01.773Z,11.03
2023-05-19T02:48:35.416Z,11.06
2023-05-19T02:51:07.957Z,11.05
2023-05-19T02:53:39.877Z,11.04
2023-05-19T02:56:10.749Z,11.03
2023-05-19T02:58:43.429Z,11.04
2023-05-19T03:01:14.589Z,11.05
2023-05-19T03:03:48.003Z,11.06
2023-05-19T03:06:18.821Z,11.07
2023-05-19T03:08:49.696Z,11.08
2023-05-19T03:11:21.103Z,11.09
2023-05-19T03:13:51.868Z,11.12
2023-05-19T03:16:22.645Z,11.11
2023-05-19T03:18:57.516Z,11.14
2023-05-19T03:21:28.372Z,11.15
2023-05-19T03:23:59.212Z,11.16
2023-05-19T03:26:30.138Z,11.18
2023-05-19T03:29:01.359Z,11.20
2023-05-19T03:31:34.125Z,11.21
2023-05-19T03:34:07.994Z,11.22
2023-05-19T03:36:39.695Z,11.23
2023-05-19T03:39:15.322Z,11.23
2023-05-19T03:41:47.881Z,11.25
2023-05-19T03:44:19.231Z,11.27
2023-05-19T03:46:49.961Z,11.29
2023-05-19T03:49:43.994Z,11.32
2023-05-19T03:52:34.698Z,11.35
2023-05-19T03:55:24.500Z,11.40
2023-05-19T03:57:55.669Z,11.45
2023-05-19T04:00:27.023Z,11.49
2023-05-19T04:02:58.518Z,11.55
2023-05-19T04:05:31.926Z,11.59
2023-05-19T04:08:04.431Z,11.64
2023-05-19T04:10:35.236Z,11.70
2023-05-19T04:13:08.555Z,11.77
2023-05-19T04:15:39.541Z,11.83
2023-05-19T04:18:10.439Z,11.89
2023-05-19T04:20:47.180Z,11.94
2023-05-19T04:23:18.025Z,11.99
2023-05-19T04:25:49.110Z,12.02
2023-05-19T04:28:19.998Z,12.07
2023-05-19T04:30:50.916Z,12.15
2023-05-19T04:33:21.926Z,12.20
2023-05-19T04:35:55.338Z,12.26
2023-05-19T04:38:26.188Z,12.31
2023-05-19T04:40:56.903Z,12.39
2023-05-19T04:43:28.676Z,12.46
2023-05-19T04:46:00.222Z,12.53
2023-05-19T04:48:31.428Z,12.59
2023-05-19T04:51:05.429Z,12.71
2023-05-19T04:53:37.296Z,12.84
2023-05-19T04:56:15.638Z,13.04
2023-05-19T04:58:48.341Z,13.24
2023-05-19T05:01:21.783Z,13.56
2023-05-19T05:03:55.492Z,13.84
2023-05-19T05:06:29.176Z,14.14
2023-05-19T05:09:00.323Z,14.37
2023-05-19T05:11:32.263Z,14.65
2023-05-19T05:14:04.970Z,14.92
2023-05-19T05:16:38.190Z,15.11
2023-05-19T05:19:10.816Z,15.32
2023-05-19T05:21:46.586Z,15.58
2023-05-19T05:24:19.054Z,15.81
2023-05-19T05:26:57.363Z,16.14
2023-05-19T05:29:28.199Z,16.50
2023-05-19T05:31:59.783Z,16.87
2023-05-19T05:34:30.924Z,17.27
2023-05-19T05:37:04.255Z,17.70
2023-05-19T05:39:35.254Z,18.08
2023-05-19T05:42:06.233Z,18.45
2023-05-19T05:44:37.434Z,18.86
2023-05-19T05:47:12.316Z,19.20
2023-05-19T05:49:44.346Z,19.56
2023-05-19T05:52:20.110Z,19.89
2023-05-19T05:54:54.140Z,20.21
2023-05-19T05:57:25.992Z,20.50
2023-05-19T05:59:56.691Z,20.73
2023-05-19T06:02:28.070Z,20.88
2023-05-19T06:05:02.905Z,21.00
2023-05-19T06:07:37.933Z,21.19
2023-05-19T06:10:10.777Z,21.40
2023-05-19T06:12:43.587Z,21.62
2023-05-19T06:15:15.726Z,21.69
2023-05-19T06:17:54.995Z,21.68
2023-05-19T06:20:25.997Z,21.71
2023-05-19T06:22:59.537Z,21.80
2023-05-19T06:25:31.718Z,21.92
2023-05-19T06:28:02.781Z,22.06
2023-05-19T06:30:33.865Z,22.28
2023-05-19T06:33:14.300Z,22.60
2023-05-19T06:35:45.212Z,22.93
2023-05-19T06:38:18.806Z,23.27
2023-05-19T06:40:49.581Z,23.53
2023-05-19T06:43:20.430Z,23.77
2023-05-19T06:45:59.055Z,23.92
2023-05-19T06:48:30.355Z,23.98
2023-05-19T06:51:03.426Z,23.88
2023-05-19T06:53:39.171Z,23.62
2023-05-19T06:56:12.860Z,23.63
2023-05-19T06:58:44.456Z,23.78
2023-05-19T07:01:16.191Z,24.07
2023-05-19T07:03:52.753Z,24.38
2023-05-19T07:06:25.304Z,24.65
2023-05-19T07:08:59.515Z,24.92
2023-05-19T07:11:30.771Z,25.17
2023-05-19T07:14:02.370Z,25.41
2023-05-19T07:16:35.744Z,25.55
2023-05-19T07:19:06.690Z,25.68
2023-05-19T07:21:37.740Z,25.92
2023-05-19T07:24:11.514Z,26.19
2023-05-19T07:26:43.006Z,26.34
2023-05-19T07:29:13.891Z,26.41
2023-05-19T07:31:44.676Z,26.33
2023-05-19T07:34:15.672Z,26.09
2023-05-19T07:36:46.497Z,25.92
2023-05-19T07:39:20.376Z,25.83
2023-05-19T07:41:55.866Z,25.75
2023-05-19T07:44:27.464Z,25.67
2023-05-19T07:46:58.265Z,25.62
2023-05-19T07:49:29.821Z,25.61
2023-05-19T07:52:00.844Z,25.49
2023-05-19T07:54:34.637Z,25.29
2023-05-19T07:57:05.371Z,25.06
2023-05-19T07:59:36.384Z,24.80
2023-05-19T08:02:07.421Z,24.68
2023-05-19T08:04:38.322Z,24.74
2023-05-19T08:07:09.206Z,24.94
2023-05-19T08:09:42.693Z,25.13
2023-05-19T08:12:13.580Z,25.33
2023-05-19T08:14:44.360Z,25.37
2023-05-19T08:17:15.270Z,25.15
2023-05-19T08:19:46.281Z,24.83
2023-05-19T08:22:17.194Z,24.51
2023-05-19T08:24:52.022Z,24.32
2023-05-19T08:27:22.810Z,24.07
2023-05-19T08:29:53.596Z,23.80
2023-05-19T08:32:24.527Z,23.59
2023-05-19T08:34:55.451Z,23.44
2023-05-19T08:37:26.339Z,23.27
2023-05-19T08:39:59.847Z,23.27
2023-05-19T08:42:30.737Z,23.20
2023-05-19T08:45:01.576Z,23.15
2023-05-19T08:47:36.974Z,23.08
2023-05-19T08:50:11.299Z,23.03
2023-05-19T08:52:53.021Z,23.06
2023-05-19T08:55:40.023Z,23.15
2023-05-19T08:58:12.356Z,23.27
2023-05-19T09:00:43.360Z,23.44
2023-05-19T09:03:22.806Z,23.62
2023-05-19T09:05:54.942Z,23.92
2023-05-19T09:08:25.904Z,24.09
2023-05-19T09:10:59.347Z,24.11
2023-05-19T09:13:30.315Z,24.09
2023-05-19T09:16:02.388Z,24.16
2023-05-19T09:18:33.951Z,24.35
2023-05-19T09:21:05.622Z,24.57
2023-05-19T09:23:37.886Z,24.73
2023-05-19T09:26:11.311Z,24.69
2023-05-19T09:28:43.596Z,24.60
2023-05-19T09:31:14.937Z,24.46
2023-05-19T09:33:46.673Z,24.45
2023-05-19T09:36:17.550Z,24.51
2023-05-19T09:38:49.601Z,24.67
2023-05-19T09:41:23.605Z,24.90
2023-05-19T09:43:58.348Z,25.11
2023-05-19T09:46:30.512Z,25.25
2023-05-19T09:49:01.681Z,25.36
2023-05-19T09:51:32.915Z,25.34
2023-05-19T09:54:04.760Z,25.39
2023-05-19T09:56:39.865Z,25.53
2023-05-19T09:59:13.856Z,25.71
2023-05-19T10:01:47.067Z,25.78
2023-05-19T10:04:18.980Z,25.94
2023-05-19T10:06:53.959Z,26.18
2023-05-19T10:09:27.439Z,26.47
2023-05-19T10:12:02.437Z,26.59
2023-05-19T10:14:33.630Z,26.64
2023-05-19T10:17:04.592Z,26.56
2023-05-19T10:19:35.524Z,26.41
2023-05-19T10:22:06.812Z,26.27
2023-05-19T10:24:37.780Z,26.12
2023-05-19T10:27:17.442Z,25.89
2023-05-19T10:29:53.893Z,25.78
2023-05-19T10:32:30.145Z,25.81
2023-05-19T10:35:19.906Z,25.84
2023-05-19T10:37:59.769Z,25.96
2023-05-19T10:40:34.684Z,26.08
2023-05-19T10:43:31.490Z,26.16
2023-05-19T10:46:02.862Z,26.13
2023-05-19T10:48:40.279Z,26.10
2023-05-19T10:51:12.807Z,26.16
2023-05-19T10:53:46.750Z,26.22
2023-05-19T10:56:34.333Z,26.25
2023-05-19T10:59:07.979Z,26.16
2023-05-19T11:01:41.932Z,26.15
2023-05-19T11:04:15.253Z,26.21
2023-05-19T11:06:54.519Z,26.21
2023-05-19T11:09:37.936Z,26.16
2023-05-19T11:12:13.673Z,25.97
2023-05-19T11:14:47.703Z,25.79
2023-05-19T11:17:19.429Z,25.49
2023-05-19T11:19:57.690Z,25.17
2023-05-19T11:22:29.724Z,24.94
2023-05-19T11:25:01.199Z,24.74
2023-05-19T11:27:36.044Z,24.56
2023-05-19T11:30:15.317Z,24.39
2023-05-19T11:32:47.361Z,24.21
2023-05-19T11:35:21.422Z,24.03
2023-05-19T11:37:53.009Z,23.92
2023-05-19T11:40:25.099Z,23.80
2023-05-19T11:42:56.365Z,23.68
2023-05-19T11:45:35.545Z,23.56
2023-05-19T11:48:07.256Z,23.48
2023-05-19T11:50:38.822Z,23.34
2023-05-19T11:53:09.811Z,23.25
2023-05-19T11:55:46.949Z,23.20
2023-05-19T11:58:18.893Z,23.14
2023-05-19T12:00:53.241Z,23.09
2023-05-19T12:03:28.942Z,22.97
2023-05-19T12:06:00.157Z,22.90
2023-05-19T12:08:32.525Z,22.85
2023-05-19T12:11:03.373Z,22.86
2023-05-19T12:13:34.309Z,22.91
2023-05-19T12:16:08.194Z,22.95
2023-05-19T12:18:41.152Z,22.92
2023-05-19T12:21:12.580Z,22.92
2023-05-19T12:23:44.668Z,22.96
2023-05-19T12:26:15.661Z,23.03
2023-05-19T12:28:48.546Z,23.07
2023-05-19T12:31:23.952Z,23.16
2023-05-19T12:33:54.948Z,23.19
2023-05-19T12:36:28.902Z,23.21
2023-05-19T12:38:59.923Z,23.21
2023-05-19T12:41:30.659Z,23.19
2023-05-19T12:44:01.433Z,23.19
2023-05-19T12:46:36.254Z,23.18
2023-05-19T12:49:06.784Z,23.17
2023-05-19T12:51:37.746Z,23.19
2023-05-19T12:54:08.731Z,23.22
2023-05-19T12:56:39.543Z,23.19
2023-05-19T12:59:10.417Z,23.15
2023-05-19T13:01:44.017Z,23.11
2023-05-19T13:04:14.931Z,23.10
2023-05-19T13:06:47.778Z,23.11
2023-05-19T13:09:19.310Z,23.12
2023-05-19T13:11:52.563Z,23.14
2023-05-19T13:14:23.530Z,23.16
2023-05-19T13:16:58.259Z,23.17
2023-05-19T13:19:29.501Z,23.16
2023-05-19T13:22:00.454Z,23.18
2023-05-19T13:24:31.264Z,23.18
2023-05-19T13:27:03.526Z,23.15
2023-05-19T13:29:34.367Z,23.13
2023-05-19T13:32:09.071Z,23.12
2023-05-19T13:34:39.906Z,23.11
2023-05-19T13:37:11.993Z,23.12
2023-05-19T13:39:42.842Z,23.13
2023-05-19T13:42:13.577Z,23.12
2023-05-19T13:44:44.361Z,22.94
2023-05-19T13:47:17.849Z,22.45
2023-05-19T13:49:48.715Z,21.81
2023-05-19T13:52:19.547Z,21.01
2023-05-19T13:54:50.834Z,20.44
2023-05-19T13:57:21.602Z,19.91
2023-05-19T14:00:01.617Z,19.38
2023-05-19T14:02:45.610Z,18.75
2023-05-19T14:05:16.546Z,18.27
2023-05-19T14:07:47.439Z,17.95
2023-05-19T14:10:18.281Z,17.64
2023-05-19T14:13:18.276Z,17.42
2023-05-19T14:15:41.591Z,17.16
2023-05-19T14:18:15.022Z,16.91
2023-05-19T14:20:45.953Z,16.65
2023-05-19T14:23:17.412Z,16.37
2023-05-19T14:25:48.185Z,16.04
2023-05-19T14:28:18.978Z,15.73
2023-05-19T14:30:50.388Z,15.48
2023-05-19T14:33:24.134Z,15.29
2023-05-19T14:35:55.752Z,15.14
2023-05-19T14:38:27.715Z,15.05
2023-05-19T14:41:00.220Z,15.01
2023-05-19T14:43:31.443Z,15.01
2023-05-19T14:46:02.553Z,15.08
2023-05-19T14:48:36.015Z,15.10
2023-05-19T14:51:06.988Z,15.14
2023-05-19T14:53:37.887Z,15.16
2023-05-19T14:56:10.095Z,15.21
2023-05-19T14:58:40.880Z,15.26
2023-05-19T15:01:11.730Z,15.30
2023-05-19T15:03:45.507Z,15.34
2023-05-19T15:06:16.407Z,15.36
2023-05-19T15:08:47.313Z,15.38
2023-05-19T15:11:18.253Z,15.38
2023-05-19T15:13:49.001Z,15.38
2023-05-19T15:16:20.134Z,15.38
2023-05-19T15:18:54.635Z,15.39
2023-05-19T15:21:25.378Z,15.39
2023-05-19T15:23:56.000Z,15.40
2023-05-19T15:26:29.042Z,15.40
2023-05-19T15:29:00.631Z,15.39
2023-05-19T15:31:31.583Z,15.39
2023-05-19T15:34:05.085Z,15.39
2023-05-19T15:36:35.915Z,15.38
2023-05-19T15:39:06.886Z,15.35
2023-05-19T15:41:37.782Z,15.32
2023-05-19T15:44:08.759Z,15.30
2023-05-19T15:46:39.846Z,15.27
2023-05-19T15:49:13.314Z,15.20
2023-05-19T15:51:44.942Z,15.13
2023-05-19T15:54:15.774Z,15.05
2023-05-19T15:56:46.669Z,15.03
2023-05-19T15:59:17.478Z,14.98
2023-05-19T16:01:49.497Z,14.99
2023-05-19T16:04:24.477Z,14.99
2023-05-19T16:06:55.310Z,15.00
2023-05-19T16:09:26.357Z,15.03
2023-05-19T16:11:57.222Z,15.02
2023-05-19T16:14:31.387Z,15.00
2023-05-19T16:17:02.218Z,14.99
2023-05-19T16:19:35.668Z,14.95
2023-05-19T16:22:06.567Z,14.94
2023-05-19T16:24:37.336Z,14.96
2023-05-19T16:27:08.774Z,14.97
2023-05-19T16:29:39.668Z,14.97
2023-05-19T16:32:11.129Z,14.99
2023-05-19T16:34:44.686Z,14.96
2023-05-19T16:37:15.532Z,15.04
2023-05-19T16:39:48.747Z,15.05
2023-05-19T16:42:19.758Z,15.08
2023-05-19T16:44:50.569Z,15.07
2023-05-19T16:47:21.478Z,15.06
2023-05-19T16:49:54.987Z,15.06
2023-05-19T16:52:25.827Z,15.03
2023-05-19T16:54:56.578Z,15.03
2023-05-19T16:57:27.509Z,15.01
2023-05-19T16:59:58.314Z,14.99
2023-05-19T17:02:29.316Z,14.97
2023-05-19T17:05:03.062Z,14.95
2023-05-19T17:07:34.373Z,14.97
2023-05-19T17:10:05.230Z,14.95
2023-05-19T17:12:36.786Z,14.94
2023-05-19T17:15:08.719Z,14.95
2023-05-19T17:17:39.770Z,14.94
2023-05-19T17:20:14.897Z,14.92
2023-05-19T17:22:45.800Z,14.89
2023-05-19T17:25:16.792Z,14.88
2023-05-19T17:27:47.602Z,14.85
2023-05-19T17:30:18.347Z,14.83
2023-05-19T17:32:49.900Z,14.80
2023-05-19T17:35:23.442Z,14.77
2023-05-19T17:37:54.243Z,14.72
2023-05-19T17:40:25.101Z,14.69
2023-05-19T17:42:55.985Z,14.65
2023-05-19T17:45:27.386Z,14.63
2023-05-19T17:47:58.271Z,14.59
2023-05-19T17:50:31.889Z,14.57
2023-05-19T17:53:03.753Z,14.53
2023-05-19T17:55:35.426Z,14.48
2023-05-19T17:58:07.123Z,14.43
2023-05-19T18:00:38.541Z,14.37
2023-05-19T18:03:10.357Z,14.30
2023-05-19T18:05:45.061Z,14.24
2023-05-19T18:08:16.945Z,14.20
2023-05-19T18:10:48.971Z,14.18
2023-05-19T18:13:19.782Z,14.15
2023-05-19T18:15:50.721Z,14.11
2023-05-19T18:18:21.656Z,14.10
2023-05-19T18:20:55.311Z,14.09
2023-05-19T18:23:26.191Z,14.05
2023-05-19T18:25:58.353Z,14.02
2023-05-19T18:28:30.048Z,13.98
2023-05-19T18:31:03.755Z,13.95
2023-05-19T18:33:34.857Z,13.93
2023-05-19T18:36:08.738Z,13.90
2023-05-19T18:38:39.617Z,13.84
2023-05-19T18:41:12.040Z,13.80
2023-05-19T18:43:43.511Z,13.75
2023-05-19T18:46:14.955Z,13.69
2023-05-19T18:48:46.501Z,13.60
2023-05-19T18:51:22.185Z,13.53
2023-05-19T18:53:54.017Z,13.49
2023-05-19T18:56:28.787Z,13.43
2023-05-19T18:59:00.952Z,13.37
2023-05-19T19:01:32.068Z,13.34
2023-05-19T19:04:03.769Z,13.30
2023-05-19T19:06:38.836Z,13.27
2023-05-19T19:09:09.815Z,13.26
2023-05-19T19:11:40.668Z,13.26
2023-05-19T19:14:11.557Z,13.26
2023-05-19T19:16:42.390Z,13.27
2023-05-19T19:19:16.454Z,13.27
2023-05-19T19:21:49.910Z,13.27
2023-05-19T19:24:20.733Z,13.26
2023-05-19T19:26:51.480Z,13.23
2023-05-19T19:29:22.404Z,13.21
2023-05-19T19:31:53.332Z,13.19
2023-05-19T19:34:24.252Z,13.15
2023-05-19T19:36:57.731Z,13.12
2023-05-19T19:39:28.693Z,13.07
2023-05-19T19:41:59.469Z,13.02
2023-05-19T19:44:30.294Z,12.99
2023-05-19T19:47:01.093Z,12.95
2023-05-19T19:49:32.103Z,12.92
2023-05-19T19:52:05.566Z,12.86
2023-05-19T19:54:37.265Z,12.79
2023-05-19T19:57:08.780Z,12.72
2023-05-19T19:59:39.703Z,12.68
2023-05-19T20:02:10.515Z,12.66
2023-05-19T20:04:41.614Z,12.64
2023-05-19T20:07:19.521Z,12.62
2023-05-19T20:09:51.975Z,12.62
2023-05-19T20:12:22.791Z,12.60
2023-05-19T20:14:56.355Z,12.61
2023-05-19T20:17:27.263Z,12.61
2023-05-19T20:19:58.742Z,12.60
2023-05-19T20:22:32.183Z,12.57
2023-05-19T20:25:03.156Z,12.54
2023-05-19T20:27:36.129Z,12.53
2023-05-19T20:30:07.458Z,12.51
2023-05-19T20:32:38.492Z,12.49
2023-05-19T20:35:10.242Z,12.47
2023-05-19T20:37:43.688Z,12.47
2023-05-19T20:40:14.995Z,12.46
2023-05-19T20:42:45.794Z,12.43
2023-05-19T20:45:16.964Z,12.43
2023-05-19T20:47:47.963Z,12.40
2023-05-19T20:50:18.917Z,12.38
2023-05-19T20:52:52.427Z,12.34
2023-05-19T20:55:23.279Z,12.30
2023-05-19T20:57:54.105Z,12.28
2023-05-19T21:00:28.741Z,12.25
2023-05-19T21:03:01.242Z,12.22
2023-05-19T21:05:32.756Z,12.19
2023-05-19T21:08:06.694Z,12.14
2023-05-19T21:10:37.658Z,12.10
2023-05-19T21:13:08.499Z,12.07
2023-05-19T21:15:39.263Z,12.02
2023-05-19T21:18:11.846Z,11.96
2023-05-19T21:20:43.107Z,11.92
2023-05-19T21:23:17.016Z,11.86
2023-05-19T21:25:48.124Z,11.83
2023-05-19T21:28:19.085Z,11.79
2023-05-19T21:30:51.330Z,11.76
2023-05-19T21:33:22.500Z,11.72
2023-05-19T21:35:53.398Z,11.70
2023-05-19T21:38:26.766Z,11.68
2023-05-19T21:40:57.950Z,11.64
2023-05-19T21:43:28.835Z,11.56
2023-05-19T21:46:01.055Z,11.61
2023-05-19T21:48:32.311Z,11.59
2023-05-19T21:51:03.384Z,11.57
2023-05-19T21:53:36.835Z,11.54
2023-05-19T21:56:08.165Z,11.52
2023-05-19T21:58:39.001Z,11.50
2023-05-19T22:01:10.014Z,11.47
2023-05-19T22:03:40.964Z,11.44
2023-05-19T22:06:12.062Z,11.43
2023-05-19T22:08:45.472Z,11.41
2023-05-19T22:11:18.437Z,11.38
2023-05-19T22:13:49.247Z,11.35
2023-05-19T22:16:20.278Z,11.32
2023-05-19T22:18:51.096Z,11.31
2023-05-19T22:21:22.216Z,11.29
2023-05-19T22:23:56.090Z,11.28
2023-05-19T22:26:27.580Z,11.27
2023-05-19T22:28:58.727Z,11.25
2023-05-19T22:31:29.604Z,11.22
2023-05-19T22:34:00.455Z,11.21
2023-05-19T22:36:31.535Z,11.19
2023-05-19T22:39:04.939Z,11.17
2023-05-19T22:41:35.942Z,11.14
2023-05-19T22:44:07.130Z,11.10
2023-05-19T22:46:38.080Z,11.07
2023-05-19T22:49:10.853Z,11.04
2023-05-19T22:51:42.388Z,11.02
2023-05-19T22:54:15.990Z,11.00
2023-05-19T22:56:49.096Z,10.97
2023-05-19T22:59:21.922Z,10.94
2023-05-19T23:01:52.848Z,10.94
2023-05-19T23:04:23.702Z,10.91
2023-05-19T23:06:54.686Z,10.89
2023-05-19T23:09:28.213Z,10.86
2023-05-19T23:11:59.219Z,10.84
2023-05-19T23:14:30.077Z,10.81
2023-05-19T23:17:01.125Z,10.78
2023-05-19T23:19:35.687Z,10.75
2023-05-19T23:22:06.584Z,10.70
2023-05-19T23:24:40.289Z,10.68
2023-05-19T23:27:11.173Z,10.64
2023-05-19T23:29:41.978Z,10.61
2023-05-19T23:32:12.774Z,10.58
2023-05-19T23:34:43.519Z,10.56
2023-05-19T23:37:14.652Z,10.54
2023-05-19T23:39:48.176Z,10.52
2023-05-19T23:42:19.114Z,10.48
2023-05-19T23:44:49.882Z,10.48
2023-05-19T23:47:20.720Z,10.45
2023-05-19T23:49:51.569Z,10.42
2023-05-19T23:52:22.447Z,10.40
2023-05-19T23:54:55.910Z,10.36
2023-05-19T23:57:26.790Z,10.31
2023-05-19T23:59:57.541Z,10.27
